sensor_id;sensor_type;location;lat;lon;timestamp;temperature;humidity
73576;DHT22;61859;49.204;8.140;2023-11-19T00:00:50;8.30;99.90
73576;DHT22;61859;49.204;8.140;2023-11-19T00:03:17;8.40;99.90
73576;DHT22;61859;49.204;8.140;2023-11-19T00:05:43;8.30;99.90
73576;DHT22;61859;49.204;8.140;2023-11-19T00:08:10;8.40;99.90
73576;DHT22;61859;49.204;8.140;2023-11-19T00:10:35;8.40;99.90
73576;DHT22;61859;49.204;8.140;2023-11-19T00:13:01;8.50;99.90
73576;DHT22;61859;49.204;8.140;2023-11-19T00:15:28;8.40;99.90
73576;DHT22;61859;49.204;8.140;2023-11-19T00:17:53;8.40;99.90
73576;DHT22;61859;49.204;8.140;2023-11-19T00:20:20;8.40;99.90
73576;DHT22;61859;49.204;8.140;2023-11-19T00:22:47;8.50;99.90
73576;DHT22;61859;49.204;8.140;2023-11-19T00:25:19;8.40;99.90
73576;DHT22;61859;49.204;8.140;2023-11-19T00:27:44;8.50;99.90
73576;DHT22;61859;49.204;8.140;2023-11-19T00:30:10;8.50;99.90
73576;DHT22;61859;49.204;8.140;2023-11-19T00:32:36;8.50;99.90
73576;DHT22;61859;49.204;8.140;2023-11-19T00:35:04;8.50;99.90
73576;DHT22;61859;49.204;8.140;2023-11-19T00:37:30;8.50;99.90
73576;DHT22;61859;49.204;8.140;2023-11-19T00:39:55;8.50;99.90
73576;DHT22;61859;49.204;8.140;2023-11-19T00:42:24;8.50;99.90
73576;DHT22;61859;49.204;8.140;2023-11-19T00:44:50;8.50;99.90
73576;DHT22;61859;49.204;8.140;2023-11-19T00:47:16;8.50;99.90
73576;DHT22;61859;49.204;8.140;2023-11-19T00:49:41;8.50;99.90
73576;DHT22;61859;49.204;8.140;2023-11-19T00:52:08;8.60;99.90
73576;DHT22;61859;49.204;8.140;2023-11-19T00:54:33;8.50;99.90
73576;DHT22;61859;49.204;8.140;2023-11-19T00:56:59;8.60;99.90
73576;DHT22;61859;49.204;8.140;2023-11-19T00:59:24;8.60;99.90
73576;DHT22;61859;49.204;8.140;2023-11-19T01:01:50;8.60;99.90
73576;DHT22;61859;49.204;8.140;2023-11-19T01:04:18;8.60;99.90
73576;DHT22;61859;49.204;8.140;2023-11-19T01:06:44;8.60;99.90
73576;DHT22;61859;49.204;8.140;2023-11-19T01:09:10;8.60;99.90
73576;DHT22;61859;49.204;8.140;2023-11-19T01:11:35;8.60;99.90
73576;DHT22;61859;49.204;8.140;2023-11-19T01:14:01;8.60;99.90
73576;DHT22;61859;49.204;8.140;2023-11-19T01:16:27;8.60;99.90
73576;DHT22;61859;49.204;8.140;2023-11-19T01:18:53;8.60;99.90
73576;DHT22;61859;49.204;8.140;2023-11-19T01:21:19;8.70;99.90
73576;DHT22;61859;49.204;8.140;2023-11-19T01:23:45;8.70;99.90
73576;DHT22;61859;49.204;8.140;2023-11-19T01:26:12;8.70;99.90
73576;DHT22;61859;49.204;8.140;2023-11-19T01:28:39;8.70;99.90
73576;DHT22;61859;49.204;8.140;2023-11-19T01:31:11;8.60;99.90
73576;DHT22;61859;49.204;8.140;2023-11-19T01:33:36;8.70;99.90
73576;DHT22;61859;49.204;8.140;2023-11-19T01:36:02;8.70;99.90
73576;DHT22;61859;49.204;8.140;2023-11-19T01:38:29;8.70;99.90
73576;DHT22;61859;49.204;8.140;2023-11-19T01:40:56;8.70;99.90
73576;DHT22;61859;49.204;8.140;2023-11-19T01:43:36;8.70;99.90
73576;DHT22;61859;49.204;8.140;2023-11-19T01:46:04;8.80;99.90
73576;DHT22;61859;49.204;8.140;2023-11-19T01:48:30;8.80;99.90
73576;DHT22;61859;49.204;8.140;2023-11-19T01:50:57;8.80;99.90
73576;DHT22;61859;49.204;8.140;2023-11-19T01:53:23;8.80;99.90
73576;DHT22;61859;49.204;8.140;2023-11-19T01:55:49;8.90;99.90
73576;DHT22;61859;49.204;8.140;2023-11-19T01:58:15;8.80;99.90
73576;DHT22;61859;49.204;8.140;2023-11-19T02:00:42;8.80;99.90
73576;DHT22;61859;49.204;8.140;2023-11-19T02:03:09;8.90;99.90
73576;DHT22;61859;49.204;8.140;2023-11-19T02:05:35;8.90;99.90
73576;DHT22;61859;49.204;8.140;2023-11-19T02:08:02;8.80;99.90
73576;DHT22;61859;49.204;8.140;2023-11-19T02:10:28;8.90;99.90
73576;DHT22;61859;49.204;8.140;2023-11-19T02:12:54;8.90;99.90
73576;DHT22;61859;49.204;8.140;2023-11-19T02:15:20;9.00;99.90
73576;DHT22;61859;49.204;8.140;2023-11-19T02:17:47;9.00;99.90
73576;DHT22;61859;49.204;8.140;2023-11-19T02:20:13;9.00;99.90
73576;DHT22;61859;49.204;8.140;2023-11-19T02:22:40;9.00;99.90
73576;DHT22;61859;49.204;8.140;2023-11-19T02:25:22;9.00;99.90
73576;DHT22;61859;49.204;8.140;2023-11-19T02:27:56;8.90;99.90
73576;DHT22;61859;49.204;8.140;2023-11-19T02:30:22;9.10;99.90
73576;DHT22;61859;49.204;8.140;2023-11-19T02:32:58;9.00;99.90
73576;DHT22;61859;49.204;8.140;2023-11-19T02:35:26;9.00;99.90
73576;DHT22;61859;49.204;8.140;2023-11-19T02:37:51;9.00;99.90
73576;DHT22;61859;49.204;8.140;2023-11-19T02:40:17;9.00;99.90
73576;DHT22;61859;49.204;8.140;2023-11-19T02:42:43;9.10;99.90
73576;DHT22;61859;49.204;8.140;2023-11-19T02:45:09;9.00;99.90
73576;DHT22;61859;49.204;8.140;2023-11-19T02:47:40;9.10;99.90
73576;DHT22;61859;49.204;8.140;2023-11-19T02:50:06;9.10;99.90
73576;DHT22;61859;49.204;8.140;2023-11-19T02:52:39;9.10;99.90
73576;DHT22;61859;49.204;8.140;2023-11-19T02:55:05;9.10;99.90
73576;DHT22;61859;49.204;8.140;2023-11-19T02:57:35;9.10;99.90
73576;DHT22;61859;49.204;8.140;2023-11-19T03:00:00;9.20;99.90
73576;DHT22;61859;49.204;8.140;2023-11-19T03:02:26;9.20;99.90
73576;DHT22;61859;49.204;8.140;2023-11-19T03:04:59;9.20;99.90
73576;DHT22;61859;49.204;8.140;2023-11-19T03:07:25;9.20;99.90
73576;DHT22;61859;49.204;8.140;2023-11-19T03:09:50;9.20;99.90
73576;DHT22;61859;49.204;8.140;2023-11-19T03:12:16;9.10;99.90
73576;DHT22;61859;49.204;8.140;2023-11-19T03:14:42;9.20;99.90
73576;DHT22;61859;49.204;8.140;2023-11-19T03:17:07;9.20;99.90
73576;DHT22;61859;49.204;8.140;2023-11-19T03:19:35;9.30;99.90
73576;DHT22;61859;49.204;8.140;2023-11-19T03:22:01;9.30;99.90
73576;DHT22;61859;49.204;8.140;2023-11-19T03:24:27;9.30;99.90
73576;DHT22;61859;49.204;8.140;2023-11-19T03:26:53;9.30;99.90
73576;DHT22;61859;49.204;8.140;2023-11-19T03:29:18;9.40;99.90
73576;DHT22;61859;49.204;8.140;2023-11-19T03:31:44;9.30;99.90
73576;DHT22;61859;49.204;8.140;2023-11-19T03:34:10;9.40;99.90
73576;DHT22;61859;49.204;8.140;2023-11-19T03:36:35;9.40;99.90
73576;DHT22;61859;49.204;8.140;2023-11-19T03:39:01;9.40;99.90
73576;DHT22;61859;49.204;8.140;2023-11-19T03:41:28;9.40;99.90
73576;DHT22;61859;49.204;8.140;2023-11-19T03:43:54;9.50;99.90
73576;DHT22;61859;49.204;8.140;2023-11-19T03:46:20;9.50;99.90
73576;DHT22;61859;49.204;8.140;2023-11-19T03:48:47;9.40;99.90
73576;DHT22;61859;49.204;8.140;2023-11-19T03:51:13;9.50;99.90
73576;DHT22;61859;49.204;8.140;2023-11-19T03:53:43;9.50;99.90
73576;DHT22;61859;49.204;8.140;2023-11-19T03:56:09;9.60;99.90
73576;DHT22;61859;49.204;8.140;2023-11-19T03:58:35;9.60;99.90
73576;DHT22;61859;49.204;8.140;2023-11-19T04:01:01;9.60;99.90
73576;DHT22;61859;49.204;8.140;2023-11-19T04:03:27;9.60;99.90
73576;DHT22;61859;49.204;8.140;2023-11-19T04:05:53;9.60;99.90
73576;DHT22;61859;49.204;8.140;2023-11-19T04:08:18;9.60;99.90
73576;DHT22;61859;49.204;8.140;2023-11-19T04:10:45;9.70;99.90
73576;DHT22;61859;49.204;8.140;2023-11-19T04:13:10;9.70;99.90
73576;DHT22;61859;49.204;8.140;2023-11-19T04:15:36;9.70;99.90
73576;DHT22;61859;49.204;8.140;2023-11-19T04:18:01;9.80;99.90
73576;DHT22;61859;49.204;8.140;2023-11-19T04:20:27;9.80;99.90
73576;DHT22;61859;49.204;8.140;2023-11-19T04:22:52;9.80;99.90
73576;DHT22;61859;49.204;8.140;2023-11-19T04:25:19;9.80;99.90
73576;DHT22;61859;49.204;8.140;2023-11-19T04:27:44;9.90;99.90
73576;DHT22;61859;49.204;8.140;2023-11-19T04:30:10;9.90;99.90
73576;DHT22;61859;49.204;8.140;2023-11-19T04:32:37;9.80;99.90
73576;DHT22;61859;49.204;8.140;2023-11-19T04:35:02;9.90;99.90
73576;DHT22;61859;49.204;8.140;2023-11-19T04:37:28;9.90;99.90
73576;DHT22;61859;49.204;8.140;2023-11-19T04:39:54;10.00;99.90
73576;DHT22;61859;49.204;8.140;2023-11-19T04:42:22;10.00;99.90
73576;DHT22;61859;49.204;8.140;2023-11-19T04:44:47;10.10;99.90
73576;DHT22;61859;49.204;8.140;2023-11-19T04:47:13;10.00;99.90
73576;DHT22;61859;49.204;8.140;2023-11-19T04:49:42;10.00;99.90
73576;DHT22;61859;49.204;8.140;2023-11-19T04:52:08;10.10;99.90
73576;DHT22;61859;49.204;8.140;2023-11-19T04:54:34;10.20;99.90
73576;DHT22;61859;49.204;8.140;2023-11-19T04:57:00;10.10;99.90
73576;DHT22;61859;49.204;8.140;2023-11-19T04:59:25;10.20;99.90
73576;DHT22;61859;49.204;8.140;2023-11-19T05:01:52;10.20;99.90
73576;DHT22;61859;49.204;8.140;2023-11-19T05:04:18;10.20;99.90
73576;DHT22;61859;49.204;8.140;2023-11-19T05:06:44;10.20;99.90
73576;DHT22;61859;49.204;8.140;2023-11-19T05:09:10;10.20;99.90
73576;DHT22;61859;49.204;8.140;2023-11-19T05:11:38;10.30;99.90
73576;DHT22;61859;49.204;8.140;2023-11-19T05:14:04;10.30;99.90
73576;DHT22;61859;49.204;8.140;2023-11-19T05:16:30;10.30;99.90
73576;DHT22;61859;49.204;8.140;2023-11-19T05:18:56;10.40;99.90
73576;DHT22;61859;49.204;8.140;2023-11-19T05:21:22;10.40;99.90
73576;DHT22;61859;49.204;8.140;2023-11-19T05:23:47;10.40;99.90
73576;DHT22;61859;49.204;8.140;2023-11-19T05:26:20;10.50;99.90
73576;DHT22;61859;49.204;8.140;2023-11-19T05:28:46;10.50;99.90
73576;DHT22;61859;49.204;8.140;2023-11-19T05:31:12;10.50;99.90
73576;DHT22;61859;49.204;8.140;2023-11-19T05:33:38;10.50;99.90
73576;DHT22;61859;49.204;8.140;2023-11-19T05:36:05;10.60;99.90
73576;DHT22;61859;49.204;8.140;2023-11-19T05:38:30;10.60;99.90
73576;DHT22;61859;49.204;8.140;2023-11-19T05:40:56;10.60;99.90
73576;DHT22;61859;49.204;8.140;2023-11-19T05:43:22;10.60;99.90
73576;DHT22;61859;49.204;8.140;2023-11-19T05:45:47;10.60;99.90
73576;DHT22;61859;49.204;8.140;2023-11-19T05:48:13;10.60;99.90
73576;DHT22;61859;49.204;8.140;2023-11-19T05:50:39;10.60;99.90
73576;DHT22;61859;49.204;8.140;2023-11-19T05:53:05;10.60;99.90
73576;DHT22;61859;49.204;8.140;2023-11-19T05:55:33;10.60;99.90
73576;DHT22;61859;49.204;8.140;2023-11-19T05:57:59;10.60;99.90
73576;DHT22;61859;49.204;8.140;2023-11-19T06:00:25;10.70;99.90
73576;DHT22;61859;49.204;8.140;2023-11-19T06:02:52;10.80;99.90
73576;DHT22;61859;49.204;8.140;2023-11-19T06:05:18;10.60;99.90
73576;DHT22;61859;49.204;8.140;2023-11-19T06:07:43;10.80;99.90
73576;DHT22;61859;49.204;8.140;2023-11-19T06:10:09;10.80;99.90
73576;DHT22;61859;49.204;8.140;2023-11-19T06:12:36;10.80;99.90
73576;DHT22;61859;49.204;8.140;2023-11-19T06:15:05;10.80;99.90
73576;DHT22;61859;49.204;8.140;2023-11-19T06:17:31;10.90;99.90
73576;DHT22;61859;49.204;8.140;2023-11-19T06:19:57;10.90;99.90
73576;DHT22;61859;49.204;8.140;2023-11-19T06:22:22;10.80;99.90
73576;DHT22;61859;49.204;8.140;2023-11-19T06:24:48;10.90;99.90
73576;DHT22;61859;49.204;8.140;2023-11-19T06:27:13;10.90;99.90
73576;DHT22;61859;49.204;8.140;2023-11-19T06:29:39;10.80;99.90
73576;DHT22;61859;49.204;8.140;2023-11-19T06:32:06;10.90;99.90
73576;DHT22;61859;49.204;8.140;2023-11-19T06:34:33;10.80;99.90
73576;DHT22;61859;49.204;8.140;2023-11-19T06:36:59;11.00;99.90
73576;DHT22;61859;49.204;8.140;2023-11-19T06:39:25;10.90;99.90
73576;DHT22;61859;49.204;8.140;2023-11-19T06:41:50;11.00;99.90
73576;DHT22;61859;49.204;8.140;2023-11-19T06:44:16;11.00;99.90
73576;DHT22;61859;49.204;8.140;2023-11-19T06:46:41;11.00;99.90
73576;DHT22;61859;49.204;8.140;2023-11-19T06:49:07;11.00;99.90
73576;DHT22;61859;49.204;8.140;2023-11-19T06:51:35;11.00;99.90
73576;DHT22;61859;49.204;8.140;2023-11-19T06:54:01;11.10;99.90
73576;DHT22;61859;49.204;8.140;2023-11-19T06:56:26;11.00;99.90
73576;DHT22;61859;49.204;8.140;2023-11-19T06:58:52;11.10;99.90
73576;DHT22;61859;49.204;8.140;2023-11-19T07:01:18;11.10;99.90
73576;DHT22;61859;49.204;8.140;2023-11-19T07:03:45;11.00;99.90
73576;DHT22;61859;49.204;8.140;2023-11-19T07:06:11;11.10;99.90
73576;DHT22;61859;49.204;8.140;2023-11-19T07:08:38;11.10;99.90
73576;DHT22;61859;49.204;8.140;2023-11-19T07:11:04;11.10;99.90
73576;DHT22;61859;49.204;8.140;2023-11-19T07:13:30;11.20;99.90
73576;DHT22;61859;49.204;8.140;2023-11-19T07:15:58;11.10;99.90
73576;DHT22;61859;49.204;8.140;2023-11-19T07:18:25;11.10;99.90
73576;DHT22;61859;49.204;8.140;2023-11-19T07:20:50;11.20;99.90
73576;DHT22;61859;49.204;8.140;2023-11-19T07:23:16;11.20;99.90
73576;DHT22;61859;49.204;8.140;2023-11-19T07:25:45;11.20;99.90
73576;DHT22;61859;49.204;8.140;2023-11-19T07:28:13;11.20;99.90
73576;DHT22;61859;49.204;8.140;2023-11-19T07:30:38;11.30;99.90
73576;DHT22;61859;49.204;8.140;2023-11-19T07:33:04;11.50;99.90
73576;DHT22;61859;49.204;8.140;2023-11-19T07:35:31;11.40;99.90
73576;DHT22;61859;49.204;8.140;2023-11-19T07:37:57;11.50;99.90
73576;DHT22;61859;49.204;8.140;2023-11-19T07:40:23;11.80;99.90
73576;DHT22;61859;49.204;8.140;2023-11-19T07:42:49;11.90;99.90
73576;DHT22;61859;49.204;8.140;2023-11-19T07:45:15;12.30;99.90
73576;DHT22;61859;49.204;8.140;2023-11-19T07:47:41;12.30;99.90
73576;DHT22;61859;49.204;8.140;2023-11-19T07:50:06;12.40;99.90
73576;DHT22;61859;49.204;8.140;2023-11-19T07:52:32;12.50;99.90
73576;DHT22;61859;49.204;8.140;2023-11-19T07:54:58;12.60;99.90
73576;DHT22;61859;49.204;8.140;2023-11-19T07:57:23;12.80;99.90
73576;DHT22;61859;49.204;8.140;2023-11-19T07:59:49;12.80;99.90
73576;DHT22;61859;49.204;8.140;2023-11-19T08:02:15;12.90;99.90
73576;DHT22;61859;49.204;8.140;2023-11-19T08:04:41;12.90;99.90
73576;DHT22;61859;49.204;8.140;2023-11-19T08:07:10;13.00;99.90
73576;DHT22;61859;49.204;8.140;2023-11-19T08:09:36;13.00;99.90
73576;DHT22;61859;49.204;8.140;2023-11-19T08:12:03;13.00;99.90
73576;DHT22;61859;49.204;8.140;2023-11-19T08:14:29;13.10;99.90
73576;DHT22;61859;49.204;8.140;2023-11-19T08:16:54;13.10;99.90
73576;DHT22;61859;49.204;8.140;2023-11-19T08:19:20;13.10;99.90
73576;DHT22;61859;49.204;8.140;2023-11-19T08:21:46;13.10;99.90
73576;DHT22;61859;49.204;8.140;2023-11-19T08:24:11;13.20;99.90
73576;DHT22;61859;49.204;8.140;2023-11-19T08:26:37;13.30;99.90
73576;DHT22;61859;49.204;8.140;2023-11-19T08:29:02;13.40;99.90
73576;DHT22;61859;49.204;8.140;2023-11-19T08:31:28;13.50;99.90
73576;DHT22;61859;49.204;8.140;2023-11-19T08:33:54;13.60;99.90
73576;DHT22;61859;49.204;8.140;2023-11-19T08:36:19;13.70;99.90
73576;DHT22;61859;49.204;8.140;2023-11-19T08:38:46;13.70;99.90
73576;DHT22;61859;49.204;8.140;2023-11-19T08:41:12;13.70;99.80
73576;DHT22;61859;49.204;8.140;2023-11-19T08:43:37;13.80;99.20
73576;DHT22;61859;49.204;8.140;2023-11-19T08:46:04;13.90;98.90
73576;DHT22;61859;49.204;8.140;2023-11-19T08:48:34;13.90;98.50
73576;DHT22;61859;49.204;8.140;2023-11-19T08:50:59;13.90;98.60
73576;DHT22;61859;49.204;8.140;2023-11-19T08:53:25;14.00;98.80
73576;DHT22;61859;49.204;8.140;2023-11-19T08:55:50;14.30;97.80
73576;DHT22;61859;49.204;8.140;2023-11-19T08:58:16;14.60;96.30
73576;DHT22;61859;49.204;8.140;2023-11-19T09:00:43;14.70;95.10
73576;DHT22;61859;49.204;8.140;2023-11-19T09:03:09;14.70;95.40
73576;DHT22;61859;49.204;8.140;2023-11-19T09:05:34;14.50;95.80
73576;DHT22;61859;49.204;8.140;2023-11-19T09:08:00;14.50;95.80
73576;DHT22;61859;49.204;8.140;2023-11-19T09:10:25;14.60;96.70
73576;DHT22;61859;49.204;8.140;2023-11-19T09:12:52;14.80;95.50
73576;DHT22;61859;49.204;8.140;2023-11-19T09:15:18;15.20;93.30
73576;DHT22;61859;49.204;8.140;2023-11-19T09:17:43;15.50;91.80
73576;DHT22;61859;49.204;8.140;2023-11-19T09:20:09;16.00;90.40
73576;DHT22;61859;49.204;8.140;2023-11-19T09:22:37;16.10;89.10
73576;DHT22;61859;49.204;8.140;2023-11-19T09:25:03;16.00;89.30
73576;DHT22;61859;49.204;8.140;2023-11-19T09:27:30;16.50;86.90
73576;DHT22;61859;49.204;8.140;2023-11-19T09:29:55;17.00;85.80
73576;DHT22;61859;49.204;8.140;2023-11-19T09:32:23;17.20;84.10
73576;DHT22;61859;49.204;8.140;2023-11-19T09:34:49;17.00;84.90
73576;DHT22;61859;49.204;8.140;2023-11-19T09:37:14;16.50;85.40
73576;DHT22;61859;49.204;8.140;2023-11-19T09:39:40;16.10;87.00
73576;DHT22;61859;49.204;8.140;2023-11-19T09:42:09;16.00;87.20
73576;DHT22;61859;49.204;8.140;2023-11-19T09:44:35;15.90;87.10
73576;DHT22;61859;49.204;8.140;2023-11-19T09:47:03;15.90;87.70
73576;DHT22;61859;49.204;8.140;2023-11-19T09:49:30;16.30;86.50
73576;DHT22;61859;49.204;8.140;2023-11-19T09:51:56;16.40;85.40
73576;DHT22;61859;49.204;8.140;2023-11-19T09:54:21;16.10;86.40
73576;DHT22;61859;49.204;8.140;2023-11-19T09:56:47;15.60;87.60
73576;DHT22;61859;49.204;8.140;2023-11-19T09:59:14;15.40;89.50
73576;DHT22;61859;49.204;8.140;2023-11-19T10:01:39;15.30;89.30
73576;DHT22;61859;49.204;8.140;2023-11-19T10:04:06;15.40;89.00
73576;DHT22;61859;49.204;8.140;2023-11-19T10:06:32;15.60;86.80
73576;DHT22;61859;49.204;8.140;2023-11-19T10:08:58;15.60;87.50
73576;DHT22;61859;49.204;8.140;2023-11-19T10:11:25;16.10;86.90
73576;DHT22;61859;49.204;8.140;2023-11-19T10:13:52;16.60;83.80
73576;DHT22;61859;49.204;8.140;2023-11-19T10:16:18;16.30;84.50
73576;DHT22;61859;49.204;8.140;2023-11-19T10:18:48;16.60;84.20
73576;DHT22;61859;49.204;8.140;2023-11-19T10:21:17;17.10;82.40
73576;DHT22;61859;49.204;8.140;2023-11-19T10:23:49;16.60;82.60
73576;DHT22;61859;49.204;8.140;2023-11-19T10:26:16;16.20;83.80
73576;DHT22;61859;49.204;8.140;2023-11-19T10:28:42;16.10;85.30
73576;DHT22;61859;49.204;8.140;2023-11-19T10:31:12;17.00;83.30
73576;DHT22;61859;49.204;8.140;2023-11-19T10:33:38;17.30;80.30
73576;DHT22;61859;49.204;8.140;2023-11-19T10:36:04;18.30;78.00
73576;DHT22;61859;49.204;8.140;2023-11-19T10:38:30;19.30;72.70
73576;DHT22;61859;49.204;8.140;2023-11-19T10:40:56;19.00;73.00
73576;DHT22;61859;49.204;8.140;2023-11-19T10:43:23;18.70;74.60
73576;DHT22;61859;49.204;8.140;2023-11-19T10:45:49;18.50;74.90
73576;DHT22;61859;49.204;8.140;2023-11-19T10:48:15;18.60;74.80
73576;DHT22;61859;49.204;8.140;2023-11-19T10:50:41;19.10;74.30
73576;DHT22;61859;49.204;8.140;2023-11-19T10:53:08;19.20;71.90
73576;DHT22;61859;49.204;8.140;2023-11-19T10:55:38;19.10;73.20
73576;DHT22;61859;49.204;8.140;2023-11-19T10:58:08;19.00;72.30
73576;DHT22;61859;49.204;8.140;2023-11-19T11:00:54;19.30;70.30
73576;DHT22;61859;49.204;8.140;2023-11-19T11:03:24;18.80;72.40
73576;DHT22;61859;49.204;8.140;2023-11-19T11:05:51;18.80;72.80
73576;DHT22;61859;49.204;8.140;2023-11-19T11:08:19;18.60;72.00
73576;DHT22;61859;49.204;8.140;2023-11-19T11:10:55;18.40;73.50
73576;DHT22;61859;49.204;8.140;2023-11-19T11:13:23;18.50;72.20
73576;DHT22;61859;49.204;8.140;2023-11-19T11:15:50;17.70;74.90
73576;DHT22;61859;49.204;8.140;2023-11-19T11:18:16;18.30;73.90
73576;DHT22;61859;49.204;8.140;2023-11-19T11:20:44;19.20;71.20
73576;DHT22;61859;49.204;8.140;2023-11-19T11:37:36;16.90;77.40
73576;DHT22;61859;49.204;8.140;2023-11-19T11:40:03;16.40;79.60
73576;DHT22;61859;49.204;8.140;2023-11-19T11:42:36;16.50;79.20
73576;DHT22;61859;49.204;8.140;2023-11-19T11:45:06;17.40;77.20
73576;DHT22;61859;49.204;8.140;2023-11-19T11:50:16;17.70;76.40
73576;DHT22;61859;49.204;8.140;2023-11-19T11:55:36;17.40;77.00
73576;DHT22;61859;49.204;8.140;2023-11-19T11:58:05;18.50;71.60
73576;DHT22;61859;49.204;8.140;2023-11-19T12:00:32;19.10;69.30
73576;DHT22;61859;49.204;8.140;2023-11-19T12:03:00;20.00;67.30
73576;DHT22;61859;49.204;8.140;2023-11-19T12:05:27;19.70;67.00
73576;DHT22;61859;49.204;8.140;2023-11-19T12:07:57;20.20;66.60
73576;DHT22;61859;49.204;8.140;2023-11-19T12:10:25;19.80;66.00
73576;DHT22;61859;49.204;8.140;2023-11-19T12:12:58;19.70;66.50
73576;DHT22;61859;49.204;8.140;2023-11-19T12:15:24;19.90;65.80
73576;DHT22;61859;49.204;8.140;2023-11-19T12:17:50;19.50;67.00
73576;DHT22;61859;49.204;8.140;2023-11-19T12:20:17;19.90;65.70
73576;DHT22;61859;49.204;8.140;2023-11-19T12:22:45;20.40;63.40
73576;DHT22;61859;49.204;8.140;2023-11-19T12:25:11;20.70;63.10
73576;DHT22;61859;49.204;8.140;2023-11-19T12:27:46;20.40;62.40
73576;DHT22;61859;49.204;8.140;2023-11-19T12:30:12;20.60;62.50
73576;DHT22;61859;49.204;8.140;2023-11-19T12:32:41;21.20;59.20
73576;DHT22;61859;49.204;8.140;2023-11-19T12:35:08;21.40;57.90
73576;DHT22;61859;49.204;8.140;2023-11-19T12:40:15;21.80;55.20
73576;DHT22;61859;49.204;8.140;2023-11-19T12:42:48;21.70;55.90
73576;DHT22;61859;49.204;8.140;2023-11-19T12:45:14;21.90;57.90
73576;DHT22;61859;49.204;8.140;2023-11-19T12:47:41;22.00;55.20
73576;DHT22;61859;49.204;8.140;2023-11-19T12:50:07;21.90;54.00
73576;DHT22;61859;49.204;8.140;2023-11-19T12:52:35;21.50;55.20
73576;DHT22;61859;49.204;8.140;2023-11-19T12:55:00;21.60;55.70
73576;DHT22;61859;49.204;8.140;2023-11-19T12:57:36;20.50;57.20
73576;DHT22;61859;49.204;8.140;2023-11-19T13:00:03;20.10;59.50
73576;DHT22;61859;49.204;8.140;2023-11-19T13:02:52;20.20;58.80
73576;DHT22;61859;49.204;8.140;2023-11-19T13:05:33;20.30;59.00
73576;DHT22;61859;49.204;8.140;2023-11-19T13:10:51;18.70;63.20
73576;DHT22;61859;49.204;8.140;2023-11-19T13:13:17;18.90;63.10
73576;DHT22;61859;49.204;8.140;2023-11-19T13:15:43;19.40;60.80
73576;DHT22;61859;49.204;8.140;2023-11-19T13:18:12;19.60;60.90
73576;DHT22;61859;49.204;8.140;2023-11-19T13:20:37;19.50;58.90
73576;DHT22;61859;49.204;8.140;2023-11-19T13:23:05;19.10;60.80
73576;DHT22;61859;49.204;8.140;2023-11-19T13:25:32;19.90;59.70
73576;DHT22;61859;49.204;8.140;2023-11-19T13:27:58;19.90;58.60
73576;DHT22;61859;49.204;8.140;2023-11-19T13:30:25;20.00;58.90
73576;DHT22;61859;49.204;8.140;2023-11-19T13:32:52;20.10;57.10
73576;DHT22;61859;49.204;8.140;2023-11-19T13:35:18;20.20;58.00
73576;DHT22;61859;49.204;8.140;2023-11-19T13:37:47;20.50;57.00
73576;DHT22;61859;49.204;8.140;2023-11-19T13:40:13;20.20;56.90
73576;DHT22;61859;49.204;8.140;2023-11-19T13:42:41;19.70;56.40
73576;DHT22;61859;49.204;8.140;2023-11-19T13:45:12;19.90;57.40
73576;DHT22;61859;49.204;8.140;2023-11-19T13:47:42;19.70;57.40
73576;DHT22;61859;49.204;8.140;2023-11-19T13:50:10;19.60;57.20
73576;DHT22;61859;49.204;8.140;2023-11-19T13:52:37;19.50;58.40
73576;DHT22;61859;49.204;8.140;2023-11-19T13:55:10;19.60;58.40
73576;DHT22;61859;49.204;8.140;2023-11-19T13:57:36;19.70;58.20
73576;DHT22;61859;49.204;8.140;2023-11-19T14:00:03;19.20;59.60
73576;DHT22;61859;49.204;8.140;2023-11-19T14:02:32;19.10;60.20
73576;DHT22;61859;49.204;8.140;2023-11-19T14:04:57;19.00;61.20
73576;DHT22;61859;49.204;8.140;2023-11-19T14:07:23;19.20;60.10
73576;DHT22;61859;49.204;8.140;2023-11-19T14:09:49;19.50;59.10
73576;DHT22;61859;49.204;8.140;2023-11-19T14:12:15;19.60;59.70
73576;DHT22;61859;49.204;8.140;2023-11-19T14:14:41;19.10;59.20
73576;DHT22;61859;49.204;8.140;2023-11-19T14:17:07;18.40;61.50
73576;DHT22;61859;49.204;8.140;2023-11-19T14:19:33;17.70;64.00
73576;DHT22;61859;49.204;8.140;2023-11-19T14:21:59;17.30;65.40
73576;DHT22;61859;49.204;8.140;2023-11-19T14:24:25;17.00;66.30
73576;DHT22;61859;49.204;8.140;2023-11-19T14:26:51;16.70;66.70
73576;DHT22;61859;49.204;8.140;2023-11-19T14:29:17;16.50;67.70
73576;DHT22;61859;49.204;8.140;2023-11-19T14:31:42;16.40;68.40
73576;DHT22;61859;49.204;8.140;2023-11-19T14:34:08;16.30;68.40
73576;DHT22;61859;49.204;8.140;2023-11-19T14:36:34;16.30;68.70
73576;DHT22;61859;49.204;8.140;2023-11-19T14:39:00;16.10;68.20
73576;DHT22;61859;49.204;8.140;2023-11-19T14:41:26;16.10;66.40
73576;DHT22;61859;49.204;8.140;2023-11-19T14:43:51;16.00;67.90
73576;DHT22;61859;49.204;8.140;2023-11-19T14:46:17;16.00;67.40
73576;DHT22;61859;49.204;8.140;2023-11-19T14:48:42;15.90;67.70
73576;DHT22;61859;49.204;8.140;2023-11-19T14:51:08;15.80;68.70
73576;DHT22;61859;49.204;8.140;2023-11-19T14:53:33;15.60;68.50
73576;DHT22;61859;49.204;8.140;2023-11-19T14:56:00;15.50;68.70
73576;DHT22;61859;49.204;8.140;2023-11-19T14:58:25;15.50;69.40
73576;DHT22;61859;49.204;8.140;2023-11-19T15:00:51;15.50;69.90
73576;DHT22;61859;49.204;8.140;2023-11-19T15:03:17;15.30;71.20
73576;DHT22;61859;49.204;8.140;2023-11-19T15:05:45;15.20;71.80
73576;DHT22;61859;49.204;8.140;2023-11-19T15:08:11;15.20;72.40
73576;DHT22;61859;49.204;8.140;2023-11-19T15:10:36;15.10;72.80
73576;DHT22;61859;49.204;8.140;2023-11-19T15:13:03;15.10;73.50
73576;DHT22;61859;49.204;8.140;2023-11-19T15:15:29;15.00;74.10
73576;DHT22;61859;49.204;8.140;2023-11-19T15:17:55;14.90;74.20
73576;DHT22;61859;49.204;8.140;2023-11-19T15:20:20;15.10;74.60
73576;DHT22;61859;49.204;8.140;2023-11-19T15:22:46;15.00;74.80
73576;DHT22;61859;49.204;8.140;2023-11-19T15:25:12;14.90;75.50
73576;DHT22;61859;49.204;8.140;2023-11-19T15:27:38;14.90;75.50
73576;DHT22;61859;49.204;8.140;2023-11-19T15:30:05;14.80;75.90
73576;DHT22;61859;49.204;8.140;2023-11-19T15:32:30;14.80;75.80
73576;DHT22;61859;49.204;8.140;2023-11-19T15:34:57;14.80;76.30
73576;DHT22;61859;49.204;8.140;2023-11-19T15:37:24;14.70;76.60
73576;DHT22;61859;49.204;8.140;2023-11-19T15:39:49;14.70;77.30
73576;DHT22;61859;49.204;8.140;2023-11-19T15:42:17;14.60;77.50
73576;DHT22;61859;49.204;8.140;2023-11-19T15:44:42;14.50;78.00
73576;DHT22;61859;49.204;8.140;2023-11-19T15:47:09;14.40;78.80
73576;DHT22;61859;49.204;8.140;2023-11-19T15:49:34;14.40;78.60
73576;DHT22;61859;49.204;8.140;2023-11-19T15:52:00;14.40;78.70
73576;DHT22;61859;49.204;8.140;2023-11-19T15:54:26;14.30;79.60
73576;DHT22;61859;49.204;8.140;2023-11-19T15:56:51;14.20;79.40